Terminal Aerodrome Forecast
Issued by NWS Wichita, KS

Home | Current Version | Previous Version | Graphics & Text | Print | Product List | Glossary On
Versions: 1 2 3 4 5 6 7 8 9 10 11 12 13 14 15 16
000
FTUS43 KICT 150531
TAFICT
TAF
KICT 150531Z 1506/1606 26006KT P6SM OVC080
     FM150800 36011KT 5SM -RASN SCT015 OVC025
     FM150900 36013KT 4SM -SN BR OVC015
      TEMPO 1509/1513 2SM -SN BR OVC012
     FM151300 01014KT 5SM -SN SCT025 OVC035
     FM151500 01016G24KT P6SM VCSH SCT040 OVC080
     FM151800 36017KT P6SM BKN150=

USA.gov is the U.S. government's official web portal to all federal, state and local government web resources and services.